Time;durP1;ratioP1;P1;durP2;ratioP2;P2;SDS_P1;SDS_P2;PMS_P1;PMS_P2;Temp;Humidity;BMP_temperature;BMP_pressure;BME280_temperature;BME280_humidity;BME280_pressure;Samples;Min_cycle;Max_cycle;Signal;HPM_P1;HPM_P2
2021/01/22 00:01:26;;;;;;;0.47;0.30;;;10.70;72.90;;;;;;4992256;28;20065;-82
2021/01/22 00:03:54;;;;;;;0.65;0.20;;;10.70;72.80;;;;;;5022435;28;20123;-83
2021/01/22 00:06:21;;;;;;;3.10;0.40;;;10.80;72.90;;;;;;5022390;28;20060;-84
2021/01/22 00:08:48;;;;;;;0.10;0.10;;;10.80;73.20;;;;;;5007406;28;20311;-82
2021/01/22 00:11:15;;;;;;;1.35;0.28;;;10.80;73.70;;;;;;5000605;28;20422;-84
2021/01/22 00:13:42;;;;;;;1.02;0.40;;;10.70;77.00;;;;;;5005136;28;20057;-84
2021/01/22 00:16:10;;;;;;;1.52;0.40;;;10.40;79.60;;;;;;5004638;28;20061;-83
2021/01/22 00:18:37;;;;;;;1.20;0.30;;;10.20;80.10;;;;;;5022112;28;20073;-82
2021/01/22 00:21:07;;;;;;;0.52;0.30;;;10.10;81.90;;;;;;5008624;28;20051;-81
2021/01/22 00:23:37;;;;;;;0.57;0.32;;;10.00;82.00;;;;;;5006649;28;20050;-83
2021/01/22 00:26:06;;;;;;;1.05;0.43;;;9.90;82.40;;;;;;5001076;28;20060;-83
2021/01/22 00:28:33;;;;;;;1.90;0.50;;;9.90;82.00;;;;;;5005699;28;20050;-84
2021/01/22 00:31:00;;;;;;;0.70;0.32;;;10.00;80.90;;;;;;5009756;28;20062;-83
2021/01/22 00:33:28;;;;;;;1.20;0.40;;;10.10;79.20;;;;;;5003787;28;20049;-86
2021/01/22 00:35:57;;;;;;;0.85;0.50;;;10.20;78.30;;;;;;5005823;28;20290;-86
2021/01/22 00:38:24;;;;;;;0.28;0.22;;;10.30;77.90;;;;;;5007591;28;20089;-84
2021/01/22 00:40:51;;;;;;;1.15;0.25;;;10.30;77.50;;;;;;4990604;28;20084;-84
2021/01/22 00:43:19;;;;;;;2.25;0.50;;;10.40;77.30;;;;;;5004335;28;20041;-83
2021/01/22 00:45:46;;;;;;;0.60;0.20;;;10.40;77.10;;;;;;5011300;28;20156;-81
2021/01/22 00:48:14;;;;;;;1.08;0.20;;;10.40;77.10;;;;;;5007355;28;20096;-84
2021/01/22 00:50:41;;;;;;;1.05;0.30;;;10.50;76.40;;;;;;5008894;28;20054;-84
2021/01/22 00:53:08;;;;;;;0.43;0.30;;;10.50;76.50;;;;;;5004642;28;20050;-84
2021/01/22 00:55:35;;;;;;;2.53;0.57;;;10.60;76.20;;;;;;4989350;28;20125;-84
2021/01/22 00:58:35;;;;;;;2.20;0.63;;;10.60;75.60;;;;;;5002633;28;20061;-84
2021/01/22 01:01:22;;;;;;;0.82;0.45;;;10.70;75.10;;;;;;5001426;28;20061;-84
2021/01/22 01:03:49;;;;;;;0.80;0.43;;;10.80;74.50;;;;;;4991338;28;20245;-85
2021/01/22 01:06:16;;;;;;;0.63;0.30;;;10.70;74.90;;;;;;4985974;28;20058;-83
2021/01/22 01:08:51;;;;;;;1.23;0.30;;;10.70;74.40;;;;;;5022668;28;20056;-84
2021/01/22 01:11:38;;;;;;;2.58;0.40;;;10.70;74.80;;;;;;5043589;28;20051;-82
2021/01/22 01:14:28;;;;;;;1.13;0.40;;;10.80;74.40;;;;;;5049718;28;20093;-83
2021/01/22 01:16:56;;;;;;;3.33;0.50;;;10.80;74.10;;;;;;5013289;28;20061;-86
2021/01/22 01:19:23;;;;;;;1.55;0.30;;;10.80;74.10;;;;;;5031077;28;20140;-85
2021/01/22 01:21:50;;;;;;;1.42;0.60;;;10.70;74.10;;;;;;5032408;28;20086;-84
2021/01/22 01:24:17;;;;;;;1.38;0.40;;;10.70;73.80;;;;;;5028073;28;20056;-82
2021/01/22 01:26:44;;;;;;;1.15;0.35;;;10.80;73.50;;;;;;5026803;28;20142;-84
2021/01/22 01:29:12;;;;;;;3.28;0.50;;;10.70;74.10;;;;;;5027826;28;20282;-84
2021/01/22 01:31:39;;;;;;;2.08;0.30;;;10.70;74.20;;;;;;5047056;28;20064;-84
2021/01/22 01:34:07;;;;;;;3.45;0.60;;;10.60;74.80;;;;;;5032789;28;20049;-84
2021/01/22 01:36:33;;;;;;;0.73;0.40;;;10.60;74.40;;;;;;5022932;28;20049;-85
2021/01/22 01:39:02;;;;;;;1.05;0.43;;;10.60;74.00;;;;;;5042538;28;20079;-83
2021/01/22 01:41:29;;;;;;;0.77;0.40;;;10.60;74.60;;;;;;5026669;28;20064;-85
2021/01/22 01:43:55;;;;;;;0.52;0.30;;;10.50;74.90;;;;;;5025941;28;20083;-85
2021/01/22 01:46:22;;;;;;;1.75;0.30;;;10.50;75.00;;;;;;5026676;28;20052;-83
2021/01/22 01:48:50;;;;;;;2.45;0.50;;;10.40;75.70;;;;;;5027764;28;20054;-84
2021/01/22 01:51:17;;;;;;;0.75;0.38;;;10.50;74.90;;;;;;5043809;28;20142;-85
2021/01/22 01:53:44;;;;;;;0.65;0.40;;;10.50;74.90;;;;;;5031576;28;20124;-83
2021/01/22 01:56:11;;;;;;;2.13;0.63;;;10.50;74.70;;;;;;5046488;28;20071;-84
2021/01/22 01:58:38;;;;;;;1.45;0.45;;;10.50;74.30;;;;;;5031257;28;21317;-83
2021/01/22 02:01:05;;;;;;;1.40;0.32;;;10.50;73.90;;;;;;5044606;28;20053;-87
2021/01/22 02:03:32;;;;;;;1.88;0.50;;;10.40;74.30;;;;;;5020918;28;20256;-85
2021/01/22 02:06:00;;;;;;;3.63;0.40;;;10.40;74.30;;;;;;5045501;28;20382;-84
2021/01/22 02:08:33;;;;;;;0.43;0.20;;;10.50;74.20;;;;;;5006531;28;20122;-83
2021/01/22 02:11:03;;;;;;;0.82;0.30;;;10.50;75.60;;;;;;5043281;28;20064;-84
2021/01/22 02:13:31;;;;;;;3.67;1.02;;;10.30;77.00;;;;;;5033721;28;20036;-83
2021/01/22 02:15:58;;;;;;;1.35;0.30;;;10.20;77.80;;;;;;5031401;28;20072;-83
2021/01/22 02:18:26;;;;;;;1.23;0.38;;;10.10;77.70;;;;;;5027896;28;20163;-83
2021/01/22 02:21:08;;;;;;;0.68;0.38;;;10.10;77.60;;;;;;5028138;28;20057;-83
2021/01/22 02:23:40;;;;;;;1.17;0.50;;;10.10;77.70;;;;;;5032003;28;20078;-84
2021/01/22 02:26:51;;;;;;;0.85;0.20;;;10.10;77.20;;;;;;5029147;28;20049;-84
2021/01/22 02:29:19;;;;;;;1.38;0.30;;;10.10;77.40;;;;;;5015339;28;20232;-84
2021/01/22 02:31:48;;;;;;;0.80;0.22;;;10.00;77.80;;;;;;5022500;28;20090;-82
2021/01/22 02:34:20;;;;;;;0.28;0.28;;;10.10;77.20;;;;;;5042778;28;20124;-86
2021/01/22 02:36:48;;;;;;;1.60;0.60;;;10.10;77.20;;;;;;5041804;28;20139;-82
2021/01/22 02:39:19;;;;;;;2.03;0.47;;;10.10;77.10;;;;;;5022760;28;20053;-83
2021/01/22 02:41:49;;;;;;;0.60;0.20;;;10.10;76.20;;;;;;5020441;28;20119;-83
2021/01/22 02:44:17;;;;;;;2.60;0.30;;;10.20;76.10;;;;;;5023705;28;20049;-83
2021/01/22 02:46:45;;;;;;;0.68;0.40;;;10.20;75.90;;;;;;5012008;28;20068;-83
2021/01/22 02:49:12;;;;;;;2.70;0.25;;;10.20;75.50;;;;;;5027243;28;20053;-84
2021/01/22 02:51:39;;;;;;;1.40;0.43;;;10.30;75.00;;;;;;5043556;28;20423;-82
2021/01/22 02:54:06;;;;;;;0.70;0.38;;;10.30;75.40;;;;;;5025056;28;20103;-85
2021/01/22 02:56:47;;;;;;;3.90;0.35;;;10.20;75.30;;;;;;5025972;28;20052;-86
2021/01/22 02:59:51;;;;;;;1.55;0.30;;;10.20;75.20;;;;;;5045300;28;20336;-83
2021/01/22 03:02:23;;;;;;;0.40;0.30;;;10.20;75.20;;;;;;5046895;28;20049;-84
2021/01/22 03:04:50;;;;;;;0.70;0.20;;;10.40;74.80;;;;;;5044762;28;20543;-84
2021/01/22 03:07:23;;;;;;;0.10;0.10;;;10.40;74.30;;;;;;5031912;28;20060;-85
2021/01/22 03:09:56;;;;;;;0.82;0.20;;;10.40;74.60;;;;;;5055032;28;20041;-82
2021/01/22 03:12:23;;;;;;;0.60;0.20;;;10.30;74.40;;;;;;5055588;28;20949;-85
2021/01/22 03:14:51;;;;;;;0.20;0.10;;;10.50;74.10;;;;;;5015060;28;20236;-84
2021/01/22 03:17:18;;;;;;;0.82;0.17;;;10.40;74.40;;;;;;5034760;28;20052;-83
2021/01/22 03:19:46;;;;;;;1.20;0.30;;;10.40;74.50;;;;;;5053249;28;20622;-84
2021/01/22 03:22:13;;;;;;;0.95;0.17;;;10.40;74.80;;;;;;5029667;28;20064;-83
2021/01/22 03:24:40;;;;;;;1.75;0.40;;;10.50;74.40;;;;;;5028892;28;20048;-84
2021/01/22 03:27:08;;;;;;;1.42;0.30;;;10.40;74.60;;;;;;5049681;28;20057;-83
2021/01/22 03:29:36;;;;;;;4.07;0.28;;;10.50;74.30;;;;;;5048666;28;20048;-84
2021/01/22 03:32:05;;;;;;;0.93;0.30;;;10.40;74.70;;;;;;5034217;28;20120;-85
2021/01/22 03:34:32;;;;;;;1.10;0.30;;;10.40;75.00;;;;;;5032457;28;20049;-82
2021/01/22 03:37:01;;;;;;;2.40;0.30;;;10.30;75.10;;;;;;5033884;28;20094;-84
2021/01/22 03:39:29;;;;;;;0.40;0.30;;;10.40;74.90;;;;;;5033045;28;20045;-83
2021/01/22 03:41:56;;;;;;;2.10;0.30;;;10.40;74.50;;;;;;5045387;28;20430;-83
2021/01/22 03:44:23;;;;;;;1.52;0.30;;;10.50;74.40;;;;;;5049954;28;20068;-85
2021/01/22 03:46:50;;;;;;;2.00;0.22;;;10.60;74.30;;;;;;5032560;28;20049;-84
2021/01/22 03:49:18;;;;;;;2.47;0.25;;;10.50;74.60;;;;;;5053826;28;20057;-85
2021/01/22 03:51:44;;;;;;;0.60;0.30;;;10.50;74.60;;;;;;5052201;28;20091;-85
2021/01/22 03:54:11;;;;;;;0.82;0.30;;;10.40;74.70;;;;;;5048685;28;20059;-85
2021/01/22 03:56:40;;;;;;;2.00;0.85;;;10.50;74.20;;;;;;5053414;28;20240;-82
2021/01/22 03:59:07;;;;;;;1.40;0.30;;;10.50;73.90;;;;;;5032970;28;20053;-85
2021/01/22 04:01:34;;;;;;;0.77;0.50;;;10.60;74.00;;;;;;5018545;28;20053;-85
2021/01/22 04:04:02;;;;;;;0.57;0.38;;;10.60;73.90;;;;;;5030919;28;20100;-85
2021/01/22 04:06:31;;;;;;;0.95;0.30;;;10.70;73.30;;;;;;5035482;28;20598;-84
2021/01/22 04:08:58;;;;;;;1.20;0.28;;;10.70;73.30;;;;;;5045741;28;20068;-82
2021/01/22 04:11:25;;;;;;;4.32;0.70;;;10.70;73.00;;;;;;5017238;28;20049;-83
2021/01/22 04:13:51;;;;;;;1.52;0.43;;;10.70;72.20;;;;;;5052953;28;20107;-83
2021/01/22 04:16:18;;;;;;;1.17;0.40;;;10.80;72.30;;;;;;5041763;28;20091;-82
2021/01/22 04:18:46;;;;;;;2.50;0.47;;;10.90;72.00;;;;;;5050639;28;20090;-85
2021/01/22 04:21:13;;;;;;;2.55;0.50;;;10.80;72.00;;;;;;5033985;28;20053;-84
2021/01/22 04:23:42;;;;;;;0.90;0.20;;;10.90;71.70;;;;;;5035644;28;20059;-84
2021/01/22 04:26:11;;;;;;;1.30;0.30;;;10.90;71.40;;;;;;5047895;28;20057;-84
2021/01/22 04:28:37;;;;;;;2.67;0.73;;;10.90;71.50;;;;;;5056311;28;20056;-85
2021/01/22 04:31:08;;;;;;;5.05;0.40;;;10.90;71.40;;;;;;5058125;28;20063;-85
2021/01/22 04:33:34;;;;;;;2.95;0.45;;;10.90;71.70;;;;;;5039904;28;21003;-84
2021/01/22 04:36:03;;;;;;;0.63;0.30;;;10.90;71.70;;;;;;5058984;28;20298;-83
2021/01/22 04:38:32;;;;;;;1.58;0.32;;;10.90;71.10;;;;;;5062308;28;20056;-83
2021/01/22 04:41:02;;;;;;;2.42;0.70;;;11.00;70.70;;;;;;5056216;28;20092;-83
2021/01/22 04:43:30;;;;;;;1.05;0.47;;;11.00;70.60;;;;;;5054771;28;21467;-85
2021/01/22 04:46:03;;;;;;;4.07;0.40;;;11.10;70.60;;;;;;5062513;28;20064;-83
2021/01/22 04:48:30;;;;;;;0.60;0.25;;;11.00;70.80;;;;;;5042211;28;20053;-83
2021/01/22 04:50:59;;;;;;;3.97;0.57;;;10.90;71.30;;;;;;5037035;28;20060;-83
2021/01/22 04:53:27;;;;;;;1.30;0.30;;;10.90;72.40;;;;;;5028709;28;20032;-83
2021/01/22 04:55:56;;;;;;;1.40;0.30;;;10.80;73.70;;;;;;5057643;28;20052;-84
2021/01/22 04:58:26;;;;;;;0.57;0.32;;;10.80;74.20;;;;;;5041151;28;20108;-86
2021/01/22 05:00:53;;;;;;;4.63;0.40;;;10.70;74.50;;;;;;5042707;28;20060;-86
2021/01/22 05:03:23;;;;;;;2.63;0.35;;;10.60;74.70;;;;;;5044304;28;20108;-84
2021/01/22 05:05:50;;;;;;;0.82;0.32;;;10.70;74.40;;;;;;5056026;28;20044;-84
2021/01/22 05:08:17;;;;;;;4.10;0.57;;;10.70;75.00;;;;;;5039573;28;20053;-86
2021/01/22 05:10:44;;;;;;;3.20;0.38;;;10.60;74.60;;;;;;5054208;28;20060;-83
2021/01/22 05:13:11;;;;;;;3.60;0.40;;;10.60;74.90;;;;;;5053256;28;20268;-83
2021/01/22 05:15:39;;;;;;;2.40;0.65;;;10.60;75.30;;;;;;5053287;28;20426;-84
2021/01/22 05:18:08;;;;;;;2.70;0.52;;;10.60;75.30;;;;;;5038158;28;20053;-86
2021/01/22 05:20:36;;;;;;;2.33;0.65;;;10.60;74.90;;;;;;5053598;28;20060;-84
2021/01/22 05:23:04;;;;;;;1.90;0.40;;;10.50;75.50;;;;;;5035898;28;20052;-86
2021/01/22 05:25:32;;;;;;;0.65;0.30;;;10.50;76.10;;;;;;5057540;28;20055;-84
2021/01/22 05:28:02;;;;;;;3.97;0.40;;;10.50;75.80;;;;;;5023659;28;20049;-83
2021/01/22 05:30:31;;;;;;;7.47;0.57;;;10.40;76.50;;;;;;5024261;28;20163;-85
2021/01/22 05:33:16;;;;;;;2.10;0.50;;;10.30;77.20;;;;;;5054749;28;20380;-84
2021/01/22 05:35:43;;;;;;;2.25;0.40;;;10.30;76.30;;;;;;5011330;28;20053;-84
2021/01/22 05:38:10;;;;;;;1.35;0.47;;;10.40;75.00;;;;;;5049671;28;20076;-88
2021/01/22 05:40:37;;;;;;;3.45;0.60;;;10.50;75.20;;;;;;5029652;28;20064;-84
2021/01/22 05:43:05;;;;;;;3.30;0.82;;;10.40;75.10;;;;;;5052443;28;20151;-84
2021/01/22 05:45:40;;;;;;;2.92;0.40;;;10.50;75.10;;;;;;5034246;28;20053;-84
2021/01/22 05:48:22;;;;;;;1.77;0.45;;;10.40;75.00;;;;;;5042295;28;20055;-83
2021/01/22 05:50:51;;;;;;;3.35;0.77;;;10.50;74.20;;;;;;5035467;28;20044;-85
2021/01/22 05:53:19;;;;;;;1.00;0.30;;;10.60;73.70;;;;;;5036079;28;20067;-86
2021/01/22 05:56:04;;;;;;;2.45;0.50;;;10.60;73.10;;;;;;5048411;28;20105;-84
2021/01/22 05:58:31;;;;;;;2.10;0.50;;;10.60;73.10;;;;;;5030832;28;20324;-83
2021/01/22 06:01:09;;;;;;;2.20;0.40;;;10.70;72.60;;;;;;5022888;28;20045;-84
2021/01/22 06:03:38;;;;;;;1.15;0.20;;;10.70;73.00;;;;;;5040971;28;20074;-84
2021/01/22 06:06:06;;;;;;;1.30;0.50;;;10.70;73.50;;;;;;5055177;28;20068;-82
2021/01/22 06:08:33;;;;;;;1.10;0.20;;;10.70;73.30;;;;;;5034221;28;20385;-82
2021/01/22 06:11:02;;;;;;;4.55;1.17;;;10.60;73.60;;;;;;5020004;28;20048;-85
2021/01/22 06:13:30;;;;;;;1.67;0.45;;;10.60;73.40;;;;;;5033462;28;20095;-83
2021/01/22 06:15:58;;;;;;;4.38;0.50;;;10.70;73.00;;;;;;5032130;28;20076;-83
2021/01/22 06:18:29;;;;;;;2.55;0.32;;;10.60;73.50;;;;;;5016973;28;20057;-84
2021/01/22 06:21:20;;;;;;;1.55;0.40;;;10.60;73.70;;;;;;5044271;28;20099;-85
2021/01/22 06:23:48;;;;;;;2.47;0.45;;;10.50;74.10;;;;;;5031361;28;20067;-84
2021/01/22 06:26:15;;;;;;;4.90;0.50;;;10.60;73.70;;;;;;5018055;28;20053;-85
2021/01/22 06:28:43;;;;;;;4.95;0.55;;;10.50;73.80;;;;;;5038375;28;20053;-83
2021/01/22 06:31:11;;;;;;;2.90;1.05;;;10.60;73.20;;;;;;5039932;28;20060;-85
2021/01/22 06:33:39;;;;;;;1.95;0.47;;;10.60;73.00;;;;;;5040047;28;20060;-84
2021/01/22 06:36:09;;;;;;;1.15;0.40;;;10.60;73.60;;;;;;5058848;28;20116;-85
2021/01/22 06:38:39;;;;;;;2.00;0.43;;;10.60;73.90;;;;;;5045083;28;20053;-84
2021/01/22 06:41:06;;;;;;;1.00;0.30;;;10.50;74.10;;;;;;5059084;28;20057;-84
2021/01/22 06:43:35;;;;;;;1.50;0.30;;;10.50;74.10;;;;;;5058736;28;20075;-84
2021/01/22 06:46:06;;;;;;;2.17;0.82;;;10.50;74.50;;;;;;5053933;28;20089;-85
2021/01/22 06:48:54;;;;;;;3.25;0.60;;;10.40;76.30;;;;;;5060820;28;20285;-86
2021/01/22 06:51:22;;;;;;;0.77;0.30;;;10.20;78.70;;;;;;5061193;28;20056;-85
2021/01/22 06:54:06;;;;;;;3.83;0.68;;;10.10;78.50;;;;;;5060787;28;20044;-85
2021/01/22 06:56:35;;;;;;;1.05;0.38;;;10.00;78.80;;;;;;5056874;28;20061;-85
2021/01/22 06:59:37;;;;;;;3.13;0.60;;;9.90;79.40;;;;;;5036805;28;20235;-83
2021/01/22 07:02:04;;;;;;;3.88;0.60;;;9.80;82.80;;;;;;5058568;28;20352;-86
2021/01/22 07:04:40;;;;;;;2.15;0.50;;;9.70;84.00;;;;;;5054738;28;20320;-84
2021/01/22 07:07:09;;;;;;;2.13;1.00;;;9.60;83.70;;;;;;5055286;28;20057;-85
2021/01/22 07:09:52;;;;;;;0.40;0.15;;;9.40;85.50;;;;;;5052679;28;20434;-84
2021/01/22 07:12:39;;;;;;;0.70;0.17;;;8.80;83.30;;;;;;5036482;28;20087;-87
2021/01/22 07:15:28;;;;;;;0.45;0.00;;;8.20;84.50;;;;;;5021926;28;20344;-86
2021/01/22 07:17:56;;;;;;;0.43;0.15;;;7.90;85.20;;;;;;5050056;28;20056;-84
2021/01/22 07:20:23;;;;;;;0.10;0.10;;;7.50;85.60;;;;;;5038500;28;20049;-84
2021/01/22 07:22:53;;;;;;;0.15;0.03;;;7.20;87.60;;;;;;5051583;28;20061;-86
2021/01/22 07:25:30;;;;;;;0.80;0.10;;;7.00;86.90;;;;;;5052158;28;20076;-86
2021/01/22 07:27:57;;;;;;;0.77;0.30;;;6.80;88.20;;;;;;5050110;28;20063;-84
2021/01/22 07:30:36;;;;;;;0.00;0.00;;;6.60;88.40;;;;;;5050528;28;20076;-84
2021/01/22 07:33:36;;;;;;;0.75;0.28;;;6.50;88.50;;;;;;5036023;28;20060;-84
2021/01/22 07:36:06;;;;;;;0.10;0.10;;;6.50;88.90;;;;;;5036220;28;20071;-84
2021/01/22 07:38:35;;;;;;;1.80;0.15;;;6.40;89.10;;;;;;5034002;28;20052;-84
2021/01/22 07:41:04;;;;;;;0.00;0.00;;;6.30;89.10;;;;;;5036283;28;20053;-85
2021/01/22 07:43:31;;;;;;;0.10;0.00;;;6.30;89.00;;;;;;5056531;28;20056;-85
2021/01/22 07:46:09;;;;;;;0.10;0.10;;;6.30;89.00;;;;;;5038746;28;20061;-84
2021/01/22 07:48:41;;;;;;;0.30;0.20;;;6.30;89.20;;;;;;5017659;28;20082;-84
2021/01/22 07:51:30;;;;;;;0.17;0.10;;;6.20;90.30;;;;;;5044713;28;20064;-83
2021/01/22 07:53:59;;;;;;;0.10;0.00;;;6.20;91.50;;;;;;5035886;28;20049;-82
2021/01/22 07:56:34;;;;;;;2.30;0.38;;;6.10;92.50;;;;;;5016979;28;20049;-86
2021/01/22 07:59:01;;;;;;;0.10;0.10;;;6.10;92.90;;;;;;5056829;28;20103;-83
2021/01/22 08:01:28;;;;;;;0.47;0.20;;;6.20;91.40;;;;;;5055770;28;20056;-84
2021/01/22 08:03:55;;;;;;;0.17;0.10;;;6.20;90.10;;;;;;5053157;28;20082;-84
2021/01/22 08:06:23;;;;;;;0.65;0.20;;;6.20;88.30;;;;;;5052700;28;20048;-83
2021/01/22 08:09:05;;;;;;;0.20;0.20;;;6.10;88.30;;;;;;5052593;28;20071;-85
2021/01/22 08:11:32;;;;;;;0.68;0.30;;;6.10;89.70;;;;;;5035204;28;20048;-85
2021/01/22 08:13:59;;;;;;;1.80;0.43;;;6.10;89.70;;;;;;5035015;28;20056;-85
2021/01/22 08:16:26;;;;;;;0.38;0.10;;;6.10;89.10;;;;;;5036194;28;20100;-83
2021/01/22 08:18:53;;;;;;;0.22;0.00;;;6.00;90.50;;;;;;5053788;28;20236;-85
2021/01/22 08:21:20;;;;;;;0.28;0.10;;;5.90;91.60;;;;;;5050999;28;20045;-85
2021/01/22 08:23:48;;;;;;;0.90;0.20;;;5.90;90.90;;;;;;5041054;28;20359;-85
2021/01/22 08:26:16;;;;;;;1.85;0.20;;;6.00;90.50;;;;;;5053272;28;20044;-85
2021/01/22 08:28:45;;;;;;;0.82;0.35;;;6.10;90.00;;;;;;5019536;28;20060;-85
2021/01/22 08:31:12;;;;;;;0.15;0.10;;;6.10;89.80;;;;;;5039444;28;20057;-83
2021/01/22 08:33:41;;;;;;;0.57;0.50;;;6.00;87.90;;;;;;5037469;28;20128;-84
2021/01/22 08:36:10;;;;;;;3.95;1.58;;;5.90;88.70;;;;;;5043572;28;20078;-83
2021/01/22 08:38:37;;;;;;;1.42;0.45;;;6.00;88.80;;;;;;5061186;28;20418;-86
2021/01/22 08:41:04;;;;;;;0.40;0.10;;;5.90;87.40;;;;;;5033630;28;20056;-83
2021/01/22 08:43:50;;;;;;;0.43;0.30;;;5.90;88.50;;;;;;5017696;28;20119;-86
2021/01/22 08:46:18;;;;;;;3.20;0.82;;;5.90;87.50;;;;;;5036097;28;20399;-83
2021/01/22 08:48:45;;;;;;;2.05;0.73;;;5.80;87.80;;;;;;5054146;28;20633;-83
2021/01/22 08:51:12;;;;;;;0.90;0.30;;;5.80;87.70;;;;;;5037372;28;20084;-85
2021/01/22 08:53:52;;;;;;;0.10;0.10;;;5.80;88.00;;;;;;5051607;28;20056;-84
2021/01/22 08:56:21;;;;;;;0.45;0.10;;;5.70;88.90;;;;;;5048273;28;20275;-85
2021/01/22 08:59:00;;;;;;;0.30;0.20;;;5.70;88.60;;;;;;5050886;28;20061;-85
2021/01/22 09:02:03;;;;;;;1.00;0.22;;;5.70;88.30;;;;;;5037302;28;20139;-85
2021/01/22 09:04:31;;;;;;;0.10;0.10;;;5.70;88.50;;;;;;4974162;28;20304;-85
2021/01/22 09:06:59;;;;;;;3.55;0.70;;;5.70;88.50;;;;;;4992337;28;20066;-82
2021/01/22 09:09:41;;;;;;;0.10;0.10;;;5.70;88.60;;;;;;5021604;28;20045;-83
2021/01/22 09:12:12;;;;;;;0.80;0.10;;;5.70;87.90;;;;;;5030454;28;20059;-85
2021/01/22 09:14:59;;;;;;;1.23;0.17;;;5.70;88.20;;;;;;5047060;28;20270;-84
2021/01/22 09:17:40;;;;;;;0.47;0.22;;;5.70;89.00;;;;;;5024450;28;20083;-84
2021/01/22 09:20:12;;;;;;;0.60;0.30;;;5.80;88.60;;;;;;5019444;28;20454;-84
2021/01/22 09:22:40;;;;;;;0.77;0.32;;;5.80;88.20;;;;;;5035715;28;20228;-82
2021/01/22 09:25:10;;;;;;;0.40;0.10;;;5.90;88.20;;;;;;5037103;28;20063;-83
2021/01/22 09:27:39;;;;;;;0.43;0.20;;;5.90;87.80;;;;;;5019360;28;20800;-83
2021/01/22 09:30:10;;;;;;;0.82;0.30;;;5.90;87.50;;;;;;5034004;28;20410;-84
2021/01/22 09:32:37;;;;;;;3.70;0.50;;;5.90;87.50;;;;;;5053804;28;20052;-84
2021/01/22 09:35:05;;;;;;;1.58;0.35;;;5.90;88.50;;;;;;5056048;28;20259;-85
2021/01/22 09:37:32;;;;;;;4.15;0.90;;;6.00;87.90;;;;;;5039736;28;20053;-83
2021/01/22 09:40:00;;;;;;;0.30;0.25;;;6.00;88.70;;;;;;5032011;28;20049;-84
2021/01/22 09:42:32;;;;;;;2.22;0.63;;;6.00;88.80;;;;;;5033062;28;20455;-84
2021/01/22 09:44:59;;;;;;;1.33;0.50;;;5.90;88.50;;;;;;5043612;28;20067;-84
2021/01/22 09:47:27;;;;;;;0.47;0.17;;;5.80;88.80;;;;;;5056243;28;20061;-83
2021/01/22 09:49:54;;;;;;;0.10;0.10;;;5.70;88.20;;;;;;5050448;28;21323;-85
2021/01/22 09:52:21;;;;;;;0.68;0.68;;;5.90;85.30;;;;;;5034550;28;20060;-85
2021/01/22 09:54:48;;;;;;;0.08;0.08;;;5.90;84.70;;;;;;5036242;28;20097;-83
2021/01/22 09:57:17;;;;;;;0.63;0.20;;;5.90;84.50;;;;;;5048821;28;20055;-84
2021/01/22 09:59:44;;;;;;;0.25;0.20;;;5.90;84.90;;;;;;5033446;28;20045;-85
2021/01/22 10:02:11;;;;;;;0.73;0.50;;;6.00;84.90;;;;;;5052848;28;20036;-85
2021/01/22 10:04:38;;;;;;;1.02;0.60;;;6.10;85.00;;;;;;5047069;28;20385;-83
2021/01/22 10:07:07;;;;;;;1.35;0.98;;;6.20;84.40;;;;;;5053294;28;20106;-82
2021/01/22 10:09:34;;;;;;;1.85;1.20;;;6.30;83.40;;;;;;5049940;28;20049;-85
2021/01/22 10:12:01;;;;;;;0.20;0.20;;;6.30;84.20;;;;;;5051084;28;20108;-85
2021/01/22 10:14:28;;;;;;;0.30;0.17;;;6.50;82.90;;;;;;5052786;28;20566;-85
2021/01/22 10:16:55;;;;;;;0.52;0.28;;;6.50;82.20;;;;;;5053025;28;20057;-85
2021/01/22 10:19:22;;;;;;;0.10;0.10;;;6.40;83.00;;;;;;5052090;28;20245;-83
2021/01/22 10:21:49;;;;;;;1.58;0.13;;;6.30;82.70;;;;;;5023235;28;20056;-84
2021/01/22 10:24:18;;;;;;;6.32;1.40;;;6.40;82.60;;;;;;5021154;28;20324;-85
2021/01/22 10:26:46;;;;;;;1.80;0.55;;;6.50;83.00;;;;;;5021994;28;20053;-83
2021/01/22 10:29:13;;;;;;;1.92;0.63;;;6.40;82.60;;;;;;5038004;28;20336;-84
2021/01/22 10:31:41;;;;;;;0.95;0.22;;;6.40;83.00;;;;;;5028961;28;20072;-86
2021/01/22 10:34:08;;;;;;;0.38;0.30;;;6.50;82.20;;;;;;5051424;28;20052;-83
2021/01/22 10:36:35;;;;;;;1.25;0.50;;;6.50;81.00;;;;;;5034115;28;20125;-83
2021/01/22 10:39:04;;;;;;;0.40;0.17;;;6.20;81.90;;;;;;5043781;28;20072;-85
2021/01/22 10:41:31;;;;;;;0.30;0.30;;;6.10;81.60;;;;;;5050678;28;23251;-84
2021/01/22 10:43:58;;;;;;;1.00;0.25;;;5.90;82.80;;;;;;5030025;28;20113;-85
2021/01/22 10:46:24;;;;;;;0.10;0.10;;;6.00;84.40;;;;;;5052527;28;20061;-85
2021/01/22 10:48:51;;;;;;;0.15;0.10;;;6.10;83.80;;;;;;5037643;28;20095;-84
2021/01/22 10:51:19;;;;;;;1.65;0.40;;;6.10;84.50;;;;;;5052870;28;20362;-84
2021/01/22 10:53:47;;;;;;;0.20;0.10;;;6.20;83.50;;;;;;5035105;28;20048;-82
2021/01/22 10:56:15;;;;;;;0.00;0.00;;;6.20;83.40;;;;;;5050670;28;20327;-84
2021/01/22 10:58:41;;;;;;;0.10;0.10;;;6.20;83.40;;;;;;5055009;28;20079;-84
2021/01/22 11:01:09;;;;;;;0.08;0.00;;;6.20;82.80;;;;;;5053115;28;20059;-83
2021/01/22 11:03:38;;;;;;;0.50;0.10;;;6.10;81.90;;;;;;5035163;28;20644;-83
2021/01/22 11:06:06;;;;;;;0.20;0.20;;;6.20;82.40;;;;;;5035449;28;20075;-83
2021/01/22 11:08:33;;;;;;;0.10;0.10;;;6.20;82.40;;;;;;5050413;28;20059;-85
2021/01/22 11:11:00;;;;;;;0.22;0.17;;;6.20;83.90;;;;;;5050793;28;20032;-83
2021/01/22 11:13:29;;;;;;;0.75;0.10;;;6.10;82.10;;;;;;5051846;28;20336;-83
2021/01/22 11:15:56;;;;;;;0.38;0.10;;;6.20;82.80;;;;;;5024842;28;20053;-83
2021/01/22 11:18:23;;;;;;;0.73;0.10;;;6.20;82.70;;;;;;5020962;28;20102;-83
2021/01/22 11:20:51;;;;;;;3.03;0.77;;;6.20;82.10;;;;;;5044675;28;20036;-82
2021/01/22 11:23:18;;;;;;;1.42;0.20;;;6.20;82.80;;;;;;5040849;28;20045;-83
2021/01/22 11:25:44;;;;;;;1.30;0.40;;;6.20;82.60;;;;;;5022472;28;20332;-83
2021/01/22 11:28:12;;;;;;;0.15;0.10;;;6.20;82.40;;;;;;5037751;28;20056;-84
2021/01/22 11:30:39;;;;;;;1.17;0.45;;;6.20;83.40;;;;;;5040689;28;20052;-84
2021/01/22 11:33:07;;;;;;;0.55;0.30;;;6.20;82.10;;;;;;5051476;28;20131;-83
2021/01/22 11:35:35;;;;;;;1.67;0.45;;;6.20;81.40;;;;;;5031856;28;20060;-84
2021/01/22 11:38:04;;;;;;;0.30;0.10;;;6.20;82.10;;;;;;5021056;28;20378;-85
2021/01/22 11:40:31;;;;;;;0.05;0.05;;;6.40;81.30;;;;;;5037143;28;20057;-83
2021/01/22 11:42:59;;;;;;;0.08;0.05;;;6.40;80.00;;;;;;5038007;28;20052;-82
2021/01/22 11:45:27;;;;;;;0.00;0.00;;;6.10;81.80;;;;;;5052141;28;20055;-85
2021/01/22 11:47:55;;;;;;;0.57;0.20;;;5.90;80.80;;;;;;5033899;28;20057;-83
2021/01/22 11:50:22;;;;;;;0.77;0.40;;;5.90;83.00;;;;;;5039498;28;20079;-83
2021/01/22 11:52:49;;;;;;;0.80;0.40;;;6.00;83.40;;;;;;5048540;28;20049;-82
2021/01/22 11:55:15;;;;;;;0.28;0.15;;;6.00;83.70;;;;;;5032428;28;20351;-84
2021/01/22 11:57:42;;;;;;;0.50;0.30;;;6.10;82.50;;;;;;5053897;28;20049;-83
2021/01/22 12:00:10;;;;;;;1.13;0.43;;;6.10;83.10;;;;;;5033543;28;20041;-85
2021/01/22 12:02:40;;;;;;;1.88;0.68;;;6.00;83.40;;;;;;5035397;28;20057;-84
2021/01/22 12:05:10;;;;;;;0.28;0.10;;;6.10;83.50;;;;;;5052585;28;20052;-86
2021/01/22 12:07:36;;;;;;;0.85;0.10;;;6.20;82.30;;;;;;5038035;28;20055;-82
2021/01/22 12:10:04;;;;;;;1.58;0.63;;;6.20;82.40;;;;;;5035775;28;20144;-83
2021/01/22 12:12:31;;;;;;;0.40;0.40;;;6.10;83.80;;;;;;5030737;28;20267;-83
2021/01/22 12:14:58;;;;;;;0.93;0.35;;;6.30;82.90;;;;;;5052097;28;20060;-85
2021/01/22 12:17:24;;;;;;;2.15;0.57;;;6.40;82.50;;;;;;5054574;28;20056;-85
2021/01/22 12:19:52;;;;;;;0.57;0.22;;;6.50;81.50;;;;;;5016913;28;20052;-83
2021/01/22 12:22:22;;;;;;;0.52;0.25;;;6.50;80.20;;;;;;5054965;28;20088;-83
2021/01/22 12:24:49;;;;;;;4.43;0.40;;;6.60;80.30;;;;;;5013102;28;20064;-85
2021/01/22 12:27:15;;;;;;;0.13;0.10;;;6.60;81.00;;;;;;5055649;28;20045;-85
2021/01/22 12:29:42;;;;;;;0.30;0.20;;;6.50;80.10;;;;;;5053392;28;20048;-84
2021/01/22 12:32:09;;;;;;;0.20;0.20;;;6.40;80.10;;;;;;5056536;28;20052;-83
2021/01/22 12:34:36;;;;;;;0.32;0.10;;;6.40;78.80;;;;;;5019877;28;20065;-83
2021/01/22 12:37:03;;;;;;;0.28;0.20;;;6.30;78.30;;;;;;5034921;28;20061;-83
2021/01/22 12:39:31;;;;;;;0.82;0.55;;;6.10;79.20;;;;;;5058727;28;20060;-83
2021/01/22 12:42:01;;;;;;;0.10;0.08;;;5.90;84.10;;;;;;5035826;28;20048;-83
2021/01/22 12:44:29;;;;;;;0.30;0.15;;;5.90;84.80;;;;;;5051205;28;20475;-85
2021/01/22 12:46:56;;;;;;;1.13;0.10;;;5.90;84.40;;;;;;5035233;28;20061;-81
2021/01/22 12:49:23;;;;;;;0.10;0.10;;;5.90;83.80;;;;;;5033650;28;20053;-84
2021/01/22 12:51:50;;;;;;;0.15;0.10;;;5.90;82.90;;;;;;5019656;28;20082;-83
2021/01/22 12:54:16;;;;;;;0.03;0.03;;;5.90;82.10;;;;;;5047179;28;20470;-84
2021/01/22 12:56:44;;;;;;;0.10;0.10;;;6.10;82.00;;;;;;5032096;28;20045;-82
2021/01/22 12:59:11;;;;;;;0.10;0.10;;;6.00;83.50;;;;;;5033400;28;20057;-85
2021/01/22 13:01:39;;;;;;;0.25;0.17;;;5.90;83.10;;;;;;5017929;28;20271;-86
2021/01/22 13:04:05;;;;;;;0.00;0.00;;;6.00;84.30;;;;;;5050202;28;20456;-83
2021/01/22 13:06:32;;;;;;;0.15;0.13;;;6.00;82.00;;;;;;5049266;28;20575;-84